sensor_id;sensor_type;location;lat;lon;timestamp;pressure;altitude;pressure_sealevel;temperature;humidity
39455;BME280;25155;41.890;23.446;2022-08-19T00:01:29;91855.56;;;20.39;49.86
39455;BME280;25155;41.890;23.446;2022-08-19T00:03:58;91842.97;;;20.36;49.88
39455;BME280;25155;41.890;23.446;2022-08-19T00:06:27;91849.34;;;20.35;49.35
39455;BME280;25155;41.890;23.446;2022-08-19T00:08:56;91842.06;;;20.32;49.03
39455;BME280;25155;41.890;23.446;2022-08-19T00:11:26;91839.34;;;20.20;50.72
39455;BME280;25155;41.890;23.446;2022-08-19T00:13:54;91843.41;;;20.17;50.48
39455;BME280;25155;41.890;23.446;2022-08-19T00:16:23;91842.09;;;20.11;51.19
39455;BME280;25155;41.890;23.446;2022-08-19T00:18:50;91835.88;;;20.07;50.77
39455;BME280;25155;41.890;23.446;2022-08-19T00:21:18;91832.47;;;20.06;50.17
39455;BME280;25155;41.890;23.446;2022-08-19T00:23:45;91821.41;;;20.04;50.79
39455;BME280;25155;41.890;23.446;2022-08-19T00:26:13;91823.16;;;20.00;50.74
39455;BME280;25155;41.890;23.446;2022-08-19T00:28:42;91825.56;;;19.93;51.33
39455;BME280;25155;41.890;23.446;2022-08-19T00:31:09;91826.19;;;19.90;51.34
39455;BME280;25155;41.890;23.446;2022-08-19T00:33:37;91819.34;;;19.89;51.26
39455;BME280;25155;41.890;23.446;2022-08-19T00:36:06;91823.75;;;19.85;50.84
39455;BME280;25155;41.890;23.446;2022-08-19T00:38:37;91827.47;;;19.84;50.76
39455;BME280;25155;41.890;23.446;2022-08-19T00:41:05;91827.47;;;19.84;50.69
39455;BME280;25155;41.890;23.446;2022-08-19T00:43:33;91829.66;;;19.82;50.73
39455;BME280;25155;41.890;23.446;2022-08-19T00:46:02;91832.50;;;19.77;50.45
39455;BME280;25155;41.890;23.446;2022-08-19T00:48:30;91819.13;;;19.73;50.63
39455;BME280;25155;41.890;23.446;2022-08-19T00:50:59;91814.03;;;19.68;52.19
39455;BME280;25155;41.890;23.446;2022-08-19T00:53:28;91806.75;;;19.56;52.02
39455;BME280;25155;41.890;23.446;2022-08-19T00:56:01;91791.88;;;19.51;51.76
39455;BME280;25155;41.890;23.446;2022-08-19T00:58:33;91794.72;;;19.46;51.49
39455;BME280;25155;41.890;23.446;2022-08-19T01:01:04;91795.78;;;19.45;51.39
39455;BME280;25155;41.890;23.446;2022-08-19T01:03:33;91800.47;;;19.10;52.34
39455;BME280;25155;41.890;23.446;2022-08-19T01:06:01;91805.50;;;19.32;51.94
39455;BME280;25155;41.890;23.446;2022-08-19T01:08:29;91805.94;;;19.34;51.45
39455;BME280;25155;41.890;23.446;2022-08-19T01:10:58;91806.75;;;19.35;51.67
39455;BME280;25155;41.890;23.446;2022-08-19T01:13:28;91807.50;;;19.35;51.81
39455;BME280;25155;41.890;23.446;2022-08-19T01:15:58;91815.75;;;19.34;52.23
39455;BME280;25155;41.890;23.446;2022-08-19T01:18:30;91817.81;;;19.28;52.14
39455;BME280;25155;41.890;23.446;2022-08-19T01:21:16;91826.75;;;19.15;52.22
39455;BME280;25155;41.890;23.446;2022-08-19T01:23:47;91825.88;;;19.02;52.53
39455;BME280;25155;41.890;23.446;2022-08-19T01:26:17;91825.41;;;18.91;52.92
39455;BME280;25155;41.890;23.446;2022-08-19T01:28:47;91825.44;;;18.83;53.03
39455;BME280;25155;41.890;23.446;2022-08-19T01:31:18;91831.03;;;18.81;52.99
39455;BME280;25155;41.890;23.446;2022-08-19T01:33:46;91827.31;;;18.82;52.57
39455;BME280;25155;41.890;23.446;2022-08-19T01:36:16;91828.88;;;18.83;53.05
39455;BME280;25155;41.890;23.446;2022-08-19T01:38:50;91835.22;;;18.82;53.09
39455;BME280;25155;41.890;23.446;2022-08-19T01:41:18;91839.44;;;18.74;54.71
39455;BME280;25155;41.890;23.446;2022-08-19T01:43:46;91837.44;;;18.62;55.58
39455;BME280;25155;41.890;23.446;2022-08-19T01:46:13;91836.19;;;18.60;55.16
39455;BME280;25155;41.890;23.446;2022-08-19T01:48:41;91839.16;;;18.58;54.77
39455;BME280;25155;41.890;23.446;2022-08-19T01:51:10;91835.75;;;18.58;54.05
39455;BME280;25155;41.890;23.446;2022-08-19T01:53:38;91833.88;;;18.58;54.05
39455;BME280;25155;41.890;23.446;2022-08-19T01:56:08;91834.97;;;18.57;53.98
39455;BME280;25155;41.890;23.446;2022-08-19T01:58:38;91834.66;;;18.59;53.82
39455;BME280;25155;41.890;23.446;2022-08-19T02:01:07;91832.47;;;18.61;53.68
39455;BME280;25155;41.890;23.446;2022-08-19T02:03:35;91828.44;;;18.63;53.90
39455;BME280;25155;41.890;23.446;2022-08-19T02:06:03;91825.00;;;18.63;53.67
39455;BME280;25155;41.890;23.446;2022-08-19T02:08:35;91821.16;;;18.60;53.67
39455;BME280;25155;41.890;23.446;2022-08-19T02:11:04;91821.16;;;18.60;54.06
39455;BME280;25155;41.890;23.446;2022-08-19T02:13:34;91820.19;;;18.56;53.97
39455;BME280;25155;41.890;23.446;2022-08-19T02:16:02;91820.81;;;18.53;53.88
39455;BME280;25155;41.890;23.446;2022-08-19T02:18:30;91820.50;;;18.55;53.81
39455;BME280;25155;41.890;23.446;2022-08-19T02:20:57;91819.75;;;18.54;53.77
39455;BME280;25155;41.890;23.446;2022-08-19T02:23:26;91819.75;;;18.54;53.85
39455;BME280;25155;41.890;23.446;2022-08-19T02:25:53;91819.75;;;18.54;53.58
39455;BME280;25155;41.890;23.446;2022-08-19T02:28:23;91826.13;;;18.53;54.17
39455;BME280;25155;41.890;23.446;2022-08-19T02:30:51;91824.75;;;18.47;54.68
39455;BME280;25155;41.890;23.446;2022-08-19T02:33:19;91821.16;;;18.43;54.24
39455;BME280;25155;41.890;23.446;2022-08-19T02:35:47;91821.47;;;18.41;54.17
39455;BME280;25155;41.890;23.446;2022-08-19T02:38:15;91820.25;;;18.39;54.15
39455;BME280;25155;41.890;23.446;2022-08-19T02:40:56;91826.16;;;18.36;54.28
39455;BME280;25155;41.890;23.446;2022-08-19T02:43:25;91815.44;;;18.32;54.14
39455;BME280;25155;41.890;23.446;2022-08-19T02:45:55;91824.59;;;18.35;54.09
39455;BME280;25155;41.890;23.446;2022-08-19T02:48:24;91822.72;;;18.35;54.09
39455;BME280;25155;41.890;23.446;2022-08-19T02:50:53;91830.63;;;18.35;54.52
39455;BME280;25155;41.890;23.446;2022-08-19T02:53:22;91827.22;;;18.35;54.20
39455;BME280;25155;41.890;23.446;2022-08-19T02:55:51;91830.19;;;18.33;54.15
39455;BME280;25155;41.890;23.446;2022-08-19T02:58:20;91825.84;;;18.29;54.68
39455;BME280;25155;41.890;23.446;2022-08-19T03:00:51;91827.25;;;18.17;55.78
39455;BME280;25155;41.890;23.446;2022-08-19T03:03:20;91822.75;;;18.09;55.43
39455;BME280;25155;41.890;23.446;2022-08-19T03:05:47;91827.56;;;18.07;55.52
39455;BME280;25155;41.890;23.446;2022-08-19T03:08:15;91828.97;;;18.04;55.23
39455;BME280;25155;41.890;23.446;2022-08-19T03:10:45;91827.25;;;18.00;54.98
39455;BME280;25155;41.890;23.446;2022-08-19T03:13:15;91834.25;;;17.96;55.31
39455;BME280;25155;41.890;23.446;2022-08-19T03:15:46;91837.97;;;17.95;55.10
39455;BME280;25155;41.890;23.446;2022-08-19T03:18:15;91848.06;;;17.93;55.02
39455;BME280;25155;41.890;23.446;2022-08-19T03:20:46;91841.22;;;17.92;55.00
39455;BME280;25155;41.890;23.446;2022-08-19T03:23:15;91849.59;;;17.94;54.87
39455;BME280;25155;41.890;23.446;2022-08-19T03:25:44;91850.69;;;17.93;54.91
39455;BME280;25155;41.890;23.446;2022-08-19T03:28:14;91850.69;;;17.93;55.29
39455;BME280;25155;41.890;23.446;2022-08-19T03:30:53;91850.22;;;17.91;54.77
39455;BME280;25155;41.890;23.446;2022-08-19T03:33:23;91852.09;;;17.90;54.81
39455;BME280;25155;41.890;23.446;2022-08-19T03:36:03;91848.78;;;17.84;55.01
39455;BME280;25155;41.890;23.446;2022-08-19T03:38:31;91852.97;;;17.85;54.87
39455;BME280;25155;41.890;23.446;2022-08-19T03:41:03;91863.84;;;17.84;54.75
39455;BME280;25155;41.890;23.446;2022-08-19T03:43:32;91864.63;;;17.84;54.76
39455;BME280;25155;41.890;23.446;2022-08-19T03:46:02;91857.31;;;17.81;54.82
39455;BME280;25155;41.890;23.446;2022-08-19T03:48:31;91863.69;;;17.80;55.03
39455;BME280;25155;41.890;23.446;2022-08-19T03:51:00;91863.53;;;17.77;55.13
39455;BME280;25155;41.890;23.446;2022-08-19T03:53:29;91862.91;;;17.71;54.94
39455;BME280;25155;41.890;23.446;2022-08-19T03:55:58;91856.38;;;17.68;55.62
39455;BME280;25155;41.890;23.446;2022-08-19T03:58:27;91861.50;;;17.65;55.49
39455;BME280;25155;41.890;23.446;2022-08-19T04:00:55;91869.69;;;17.63;55.51
39455;BME280;25155;41.890;23.446;2022-08-19T04:03:23;91866.75;;;17.65;55.36
39455;BME280;25155;41.890;23.446;2022-08-19T04:05:52;91867.53;;;17.65;55.53
39455;BME280;25155;41.890;23.446;2022-08-19T04:08:22;91864.28;;;17.60;57.58
39455;BME280;25155;41.890;23.446;2022-08-19T04:10:49;91860.97;;;17.54;56.83
39455;BME280;25155;41.890;23.446;2022-08-19T04:13:18;91871.53;;;17.54;56.53
39455;BME280;25155;41.890;23.446;2022-08-19T04:15:46;91866.75;;;17.56;56.24
39455;BME280;25155;41.890;23.446;2022-08-19T04:18:13;91868.28;;;17.57;56.36
39455;BME280;25155;41.890;23.446;2022-08-19T04:20:46;91859.00;;;17.60;56.42
39455;BME280;25155;41.890;23.446;2022-08-19T04:23:14;91868.44;;;17.61;58.05
39455;BME280;25155;41.890;23.446;2022-08-19T04:25:44;91867.22;;;17.58;57.66
39455;BME280;25155;41.890;23.446;2022-08-19T04:28:12;91874.81;;;17.60;57.88
39455;BME280;25155;41.890;23.446;2022-08-19T04:30:43;91884.25;;;17.61;58.42
39455;BME280;25155;41.890;23.446;2022-08-19T04:33:12;91885.66;;;17.58;59.67
39455;BME280;25155;41.890;23.446;2022-08-19T04:35:44;91884.41;;;17.56;59.22
39455;BME280;25155;41.890;23.446;2022-08-19T04:38:13;91889.75;;;17.24;59.83
39455;BME280;25155;41.890;23.446;2022-08-19T04:40:41;91880.84;;;17.51;58.87
39455;BME280;25155;41.890;23.446;2022-08-19T04:43:28;91874.34;;;17.58;58.45
39455;BME280;25155;41.890;23.446;2022-08-19T04:45:56;91870.97;;;17.66;58.01
39455;BME280;25155;41.890;23.446;2022-08-19T04:48:24;91872.34;;;17.72;58.02
39455;BME280;25155;41.890;23.446;2022-08-19T04:50:54;91876.41;;;17.78;58.10
39455;BME280;25155;41.890;23.446;2022-08-19T04:53:24;91866.72;;;17.47;59.96
39455;BME280;25155;41.890;23.446;2022-08-19T04:55:55;91860.06;;;17.67;59.82
39455;BME280;25155;41.890;23.446;2022-08-19T04:58:24;91867.06;;;17.72;59.75
39455;BME280;25155;41.890;23.446;2022-08-19T05:00:53;91867.56;;;17.74;60.19
39455;BME280;25155;41.890;23.446;2022-08-19T05:03:21;91866.00;;;17.82;59.66
39455;BME280;25155;41.890;23.446;2022-08-19T05:05:48;91862.44;;;17.86;59.69
39455;BME280;25155;41.890;23.446;2022-08-19T05:08:18;91857.50;;;17.94;59.69
39455;BME280;25155;41.890;23.446;2022-08-19T05:10:47;91864.66;;;18.02;59.26
39455;BME280;25155;41.890;23.446;2022-08-19T05:13:16;91864.50;;;18.07;59.70
39455;BME280;25155;41.890;23.446;2022-08-19T05:15:44;91869.81;;;18.16;59.83
39455;BME280;25155;41.890;23.446;2022-08-19T05:18:21;91868.84;;;18.20;59.60
39455;BME280;25155;41.890;23.446;2022-08-19T05:21:07;91862.78;;;18.29;59.57
39455;BME280;25155;41.890;23.446;2022-08-19T05:23:51;91878.00;;;18.32;59.54
39455;BME280;25155;41.890;23.446;2022-08-19T05:26:19;91877.53;;;18.38;59.70
39455;BME280;25155;41.890;23.446;2022-08-19T05:28:46;91892.28;;;18.48;59.76
39455;BME280;25155;41.890;23.446;2022-08-19T05:31:14;91887.03;;;18.57;59.97
39455;BME280;25155;41.890;23.446;2022-08-19T05:33:42;91887.63;;;18.62;60.26
39455;BME280;25155;41.890;23.446;2022-08-19T05:36:10;91881.56;;;18.71;60.67
39455;BME280;25155;41.890;23.446;2022-08-19T05:38:37;91885.59;;;18.77;60.63
39455;BME280;25155;41.890;23.446;2022-08-19T05:41:07;91881.72;;;18.83;60.55
39455;BME280;25155;41.890;23.446;2022-08-19T05:43:36;91883.25;;;18.93;59.54
39455;BME280;25155;41.890;23.446;2022-08-19T05:46:04;91879.34;;;18.99;59.54
39455;BME280;25155;41.890;23.446;2022-08-19T05:48:32;91883.84;;;19.07;59.18
39455;BME280;25155;41.890;23.446;2022-08-19T05:51:05;91880.69;;;19.14;58.81
39455;BME280;25155;41.890;23.446;2022-08-19T05:53:34;91872.88;;;19.26;58.91
39455;BME280;25155;41.890;23.446;2022-08-19T05:56:05;91877.22;;;19.31;59.09
39455;BME280;25155;41.890;23.446;2022-08-19T05:58:34;91876.41;;;19.39;59.28
39455;BME280;25155;41.890;23.446;2022-08-19T06:01:02;91868.75;;;19.46;59.29
39455;BME280;25155;41.890;23.446;2022-08-19T06:03:32;91867.78;;;19.51;59.20
39455;BME280;25155;41.890;23.446;2022-08-19T06:06:00;91867.44;;;19.61;59.29
39455;BME280;25155;41.890;23.446;2022-08-19T06:08:30;91871.25;;;19.72;58.88
39455;BME280;25155;41.890;23.446;2022-08-19T06:11:12;91861.44;;;19.82;58.92
39455;BME280;25155;41.890;23.446;2022-08-19T06:13:40;91872.06;;;19.94;58.82
39455;BME280;25155;41.890;23.446;2022-08-19T06:16:07;91865.31;;;20.05;58.97
39455;BME280;25155;41.890;23.446;2022-08-19T06:18:34;91852.78;;;20.15;59.06
39455;BME280;25155;41.890;23.446;2022-08-19T06:21:02;91854.59;;;20.23;59.16
39455;BME280;25155;41.890;23.446;2022-08-19T06:23:32;91851.88;;;20.32;58.79
39455;BME280;25155;41.890;23.446;2022-08-19T06:25:59;91846.66;;;20.44;58.98
39455;BME280;25155;41.890;23.446;2022-08-19T06:28:27;91849.66;;;20.55;58.30
39455;BME280;25155;41.890;23.446;2022-08-19T06:30:55;91851.59;;;20.67;58.19
39455;BME280;25155;41.890;23.446;2022-08-19T06:33:23;91852.84;;;20.81;58.11
39455;BME280;25155;41.890;23.446;2022-08-19T06:35:50;91848.69;;;20.93;57.51
39455;BME280;25155;41.890;23.446;2022-08-19T06:38:18;91850.59;;;21.05;57.90
39455;BME280;25155;41.890;23.446;2022-08-19T06:40:50;91850.16;;;21.15;57.54
39455;BME280;25155;41.890;23.446;2022-08-19T06:43:18;91847.63;;;21.31;57.21
39455;BME280;25155;41.890;23.446;2022-08-19T06:45:45;91852.59;;;21.45;57.11
39455;BME280;25155;41.890;23.446;2022-08-19T06:48:13;91850.00;;;21.57;56.55
39455;BME280;25155;41.890;23.446;2022-08-19T06:50:41;91846.78;;;21.64;56.03
39455;BME280;25155;41.890;23.446;2022-08-19T06:53:08;91844.34;;;21.71;55.66
39455;BME280;25155;41.890;23.446;2022-08-19T06:55:36;91852.97;;;21.80;54.75
39455;BME280;25155;41.890;23.446;2022-08-19T06:58:05;91850.19;;;21.89;54.15
39455;BME280;25155;41.890;23.446;2022-08-19T07:00:33;91843.41;;;22.04;54.15
39455;BME280;25155;41.890;23.446;2022-08-19T07:03:01;91840.72;;;22.16;53.68
39455;BME280;25155;41.890;23.446;2022-08-19T07:05:28;91846.03;;;22.28;52.49
39455;BME280;25155;41.890;23.446;2022-08-19T07:07:56;91841.13;;;22.43;52.97
39455;BME280;25155;41.890;23.446;2022-08-19T07:10:24;91832.06;;;22.60;53.24
39455;BME280;25155;41.890;23.446;2022-08-19T07:12:51;91837.44;;;22.76;52.92
39455;BME280;25155;41.890;23.446;2022-08-19T07:15:21;91839.59;;;22.86;51.72
39455;BME280;25155;41.890;23.446;2022-08-19T07:17:49;91833.75;;;22.96;51.28
39455;BME280;25155;41.890;23.446;2022-08-19T07:20:17;91842.81;;;23.08;50.96
39455;BME280;25155;41.890;23.446;2022-08-19T07:22:45;91832.00;;;23.16;50.81
39455;BME280;25155;41.890;23.446;2022-08-19T07:25:13;91839.66;;;23.34;50.75
39455;BME280;25155;41.890;23.446;2022-08-19T07:27:43;91842.97;;;23.47;49.09
39455;BME280;25155;41.890;23.446;2022-08-19T07:30:11;91854.22;;;23.56;47.76
39455;BME280;25155;41.890;23.446;2022-08-19T07:32:40;91855.09;;;23.60;47.34
39455;BME280;25155;41.890;23.446;2022-08-19T07:35:09;91851.38;;;23.65;47.21
39455;BME280;25155;41.890;23.446;2022-08-19T07:37:37;91846.66;;;23.74;47.41
39455;BME280;25155;41.890;23.446;2022-08-19T07:40:11;91858.78;;;23.87;48.28
39455;BME280;25155;41.890;23.446;2022-08-19T07:42:39;91850.31;;;24.01;48.92
39455;BME280;25155;41.890;23.446;2022-08-19T07:45:07;91841.88;;;24.15;48.97
39455;BME280;25155;41.890;23.446;2022-08-19T07:47:35;91845.19;;;24.28;47.27
39455;BME280;25155;41.890;23.446;2022-08-19T07:50:08;91845.81;;;24.41;46.93
39455;BME280;25155;41.890;23.446;2022-08-19T07:52:37;91840.84;;;24.59;47.17
39455;BME280;25155;41.890;23.446;2022-08-19T07:55:07;91843.09;;;24.76;45.76
39455;BME280;25155;41.890;23.446;2022-08-19T07:57:35;91835.34;;;24.91;44.82
39455;BME280;25155;41.890;23.446;2022-08-19T08:00:05;91834.03;;;25.04;45.38
39455;BME280;25155;41.890;23.446;2022-08-19T08:02:33;91828.19;;;25.18;45.32
39455;BME280;25155;41.890;23.446;2022-08-19T08:05:01;91829.63;;;25.35;45.96
39455;BME280;25155;41.890;23.446;2022-08-19T08:07:47;91831.00;;;25.48;44.41
39455;BME280;25155;41.890;23.446;2022-08-19T08:10:33;91820.13;;;25.60;43.17
39455;BME280;25155;41.890;23.446;2022-08-19T08:13:01;91831.00;;;25.75;42.79
39455;BME280;25155;41.890;23.446;2022-08-19T08:15:31;91820.50;;;25.86;43.23
39455;BME280;25155;41.890;23.446;2022-08-19T08:17:59;91817.31;;;26.03;44.45
39455;BME280;25155;41.890;23.446;2022-08-19T08:20:26;91813.75;;;26.22;44.05
39455;BME280;25155;41.890;23.446;2022-08-19T08:22:55;91817.81;;;26.43;42.90
39455;BME280;25155;41.890;23.446;2022-08-19T08:25:39;91810.00;;;26.61;39.72
39455;BME280;25155;41.890;23.446;2022-08-19T08:28:06;91807.50;;;26.75;39.06
39455;BME280;25155;41.890;23.446;2022-08-19T08:30:35;91808.38;;;26.86;40.22
39455;BME280;25155;41.890;23.446;2022-08-19T08:33:03;91811.56;;;26.99;39.52
39455;BME280;25155;41.890;23.446;2022-08-19T08:35:31;91809.38;;;27.12;38.26
39455;BME280;25155;41.890;23.446;2022-08-19T08:38:01;91802.97;;;27.24;37.66
39455;BME280;25155;41.890;23.446;2022-08-19T08:40:32;91799.41;;;27.09;36.79
39455;BME280;25155;41.890;23.446;2022-08-19T08:43:06;91801.19;;;27.35;35.94
39455;BME280;25155;41.890;23.446;2022-08-19T08:45:36;91805.16;;;27.52;36.22
39455;BME280;25155;41.890;23.446;2022-08-19T08:48:18;91790.72;;;27.68;36.03
39455;BME280;25155;41.890;23.446;2022-08-19T08:50:47;91796.22;;;27.86;34.31
39455;BME280;25155;41.890;23.446;2022-08-19T08:53:20;91790.16;;;27.96;34.48
39455;BME280;25155;41.890;23.446;2022-08-19T08:55:49;91779.50;;;28.07;34.52
39455;BME280;25155;41.890;23.446;2022-08-19T08:58:20;91781.47;;;28.17;35.16
39455;BME280;25155;41.890;23.446;2022-08-19T09:00:51;91779.22;;;28.30;35.41
39455;BME280;25155;41.890;23.446;2022-08-19T09:03:20;91773.53;;;28.39;34.13
39455;BME280;25155;41.890;23.446;2022-08-19T09:05:56;91771.59;;;28.43;33.48
39455;BME280;25155;41.890;23.446;2022-08-19T09:08:33;91772.78;;;28.52;33.72
39455;BME280;25155;41.890;23.446;2022-08-19T09:11:07;91768.63;;;28.66;33.05
39455;BME280;25155;41.890;23.446;2022-08-19T09:13:45;91769.81;;;28.79;32.04
39455;BME280;25155;41.890;23.446;2022-08-19T09:16:19;91766.78;;;28.92;32.67
39455;BME280;25155;41.890;23.446;2022-08-19T09:18:52;91762.19;;;29.03;31.62
39455;BME280;25155;41.890;23.446;2022-08-19T09:21:21;91759.53;;;29.10;30.63
39455;BME280;25155;41.890;23.446;2022-08-19T09:23:51;91753.78;;;29.22;31.75
39455;BME280;25155;41.890;23.446;2022-08-19T09:26:21;91746.88;;;29.36;31.91
39455;BME280;25155;41.890;23.446;2022-08-19T09:28:50;91751.09;;;29.44;29.88
39455;BME280;25155;41.890;23.446;2022-08-19T09:31:20;91746.50;;;29.52;30.12
39455;BME280;25155;41.890;23.446;2022-08-19T09:33:48;91751.09;;;29.58;29.09
39455;BME280;25155;41.890;23.446;2022-08-19T09:36:19;91737.63;;;29.66;29.81
39455;BME280;25155;41.890;23.446;2022-08-19T09:38:48;91740.72;;;29.78;29.64
39455;BME280;25155;41.890;23.446;2022-08-19T09:41:19;91736.47;;;29.88;29.94
39455;BME280;25155;41.890;23.446;2022-08-19T09:43:50;91739.91;;;29.96;29.15
39455;BME280;25155;41.890;23.446;2022-08-19T09:46:22;91741.78;;;30.10;28.23
39455;BME280;25155;41.890;23.446;2022-08-19T09:48:50;91737.16;;;30.17;28.15
39455;BME280;25155;41.890;23.446;2022-08-19T09:51:20;91727.53;;;30.27;29.05
39455;BME280;25155;41.890;23.446;2022-08-19T09:53:50;91733.63;;;30.39;26.75
39455;BME280;25155;41.890;23.446;2022-08-19T09:56:21;91728.75;;;30.05;26.13
39455;BME280;25155;41.890;23.446;2022-08-19T09:58:49;91702.97;;;30.18;27.45
39455;BME280;25155;41.890;23.446;2022-08-19T10:01:17;91720.50;;;30.51;29.13
39455;BME280;25155;41.890;23.446;2022-08-19T10:03:48;91715.44;;;30.64;27.67
39455;BME280;25155;41.890;23.446;2022-08-19T10:06:17;91713.44;;;30.76;26.79
39455;BME280;25155;41.890;23.446;2022-08-19T10:08:45;91715.72;;;30.81;25.54
39455;BME280;25155;41.890;23.446;2022-08-19T10:11:13;91709.97;;;30.79;25.05
39455;BME280;25155;41.890;23.446;2022-08-19T10:13:44;91706.50;;;30.82;25.35
39455;BME280;25155;41.890;23.446;2022-08-19T10:16:14;91703.38;;;30.83;25.64
39455;BME280;25155;41.890;23.446;2022-08-19T10:18:42;91697.63;;;30.81;25.33
39455;BME280;25155;41.890;23.446;2022-08-19T10:21:12;91701.88;;;30.82;26.24
39455;BME280;25155;41.890;23.446;2022-08-19T10:23:40;91699.50;;;30.88;27.41
39455;BME280;25155;41.890;23.446;2022-08-19T10:26:12;91701.75;;;31.04;28.52
39455;BME280;25155;41.890;23.446;2022-08-19T10:28:40;91707.06;;;31.11;29.62
39455;BME280;25155;41.890;23.446;2022-08-19T10:31:11;91699.41;;;31.06;29.30
39455;BME280;25155;41.890;23.446;2022-08-19T10:33:41;91688.56;;;31.17;30.30
39455;BME280;25155;41.890;23.446;2022-08-19T10:36:11;91682.41;;;31.20;29.70
39455;BME280;25155;41.890;23.446;2022-08-19T10:38:41;91689.72;;;31.16;28.87
39455;BME280;25155;41.890;23.446;2022-08-19T10:41:10;91690.91;;;31.11;30.70
39455;BME280;25155;41.890;23.446;2022-08-19T10:43:38;91689.00;;;31.12;29.61
39455;BME280;25155;41.890;23.446;2022-08-19T10:46:07;91688.25;;;31.07;28.72
39455;BME280;25155;41.890;23.446;2022-08-19T10:48:36;91685.56;;;31.07;28.97
39455;BME280;25155;41.890;23.446;2022-08-19T10:51:04;91682.41;;;31.20;30.23
39455;BME280;25155;41.890;23.446;2022-08-19T10:53:49;91684.47;;;31.43;29.06
39455;BME280;25155;41.890;23.446;2022-08-19T10:56:17;91677.75;;;31.66;29.94
39455;BME280;25155;41.890;23.446;2022-08-19T10:59:03;91675.94;;;31.90;29.01
39455;BME280;25155;41.890;23.446;2022-08-19T11:01:31;91678.91;;;32.03;28.02
39455;BME280;25155;41.890;23.446;2022-08-19T11:04:03;91672.28;;;32.07;28.48
39455;BME280;25155;41.890;23.446;2022-08-19T11:06:34;91672.22;;;32.14;28.51
39455;BME280;25155;41.890;23.446;2022-08-19T11:09:02;91670.63;;;32.17;27.75
39455;BME280;25155;41.890;23.446;2022-08-19T11:11:31;91674.25;;;32.03;27.45
39455;BME280;25155;41.890;23.446;2022-08-19T11:14:05;91656.28;;;31.93;28.02
39455;BME280;25155;41.890;23.446;2022-08-19T11:16:34;91663.28;;;31.87;28.72
39455;BME280;25155;41.890;23.446;2022-08-19T11:19:03;91659.41;;;31.88;28.31
39455;BME280;25155;41.890;23.446;2022-08-19T11:21:33;91656.28;;;31.93;28.41
39455;BME280;25155;41.890;23.446;2022-08-19T11:24:03;91657.69;;;31.70;28.20
39455;BME280;25155;41.890;23.446;2022-08-19T11:26:32;91652.66;;;32.07;28.60
39455;BME280;25155;41.890;23.446;2022-08-19T11:29:01;91647.34;;;32.30;28.50
39455;BME280;25155;41.890;23.446;2022-08-19T11:31:30;91640.53;;;32.49;27.83
39455;BME280;25155;41.890;23.446;2022-08-19T11:33:59;91637.69;;;32.60;28.24
39455;BME280;25155;41.890;23.446;2022-08-19T11:36:29;91646.13;;;32.66;27.96
39455;BME280;25155;41.890;23.446;2022-08-19T11:38:57;91639.19;;;32.65;27.61
39455;BME280;25155;41.890;23.446;2022-08-19T11:41:26;91636.50;;;32.65;27.15
39455;BME280;25155;41.890;23.446;2022-08-19T11:43:54;91603.84;;;32.55;27.66
39455;BME280;25155;41.890;23.446;2022-08-19T11:46:23;91634.47;;;32.96;26.85
39455;BME280;25155;41.890;23.446;2022-08-19T11:48:51;91631.00;;;32.96;26.88
39455;BME280;25155;41.890;23.446;2022-08-19T11:51:22;91638.16;;;32.82;26.80
39455;BME280;25155;41.890;23.446;2022-08-19T11:53:52;91634.00;;;32.47;27.37
39455;BME280;25155;41.890;23.446;2022-08-19T11:56:20;91631.75;;;32.72;27.80
39455;BME280;25155;41.890;23.446;2022-08-19T11:58:48;91622.72;;;32.83;27.47
39455;BME280;25155;41.890;23.446;2022-08-19T12:01:18;91624.53;;;32.89;26.50
39455;BME280;25155;41.890;23.446;2022-08-19T12:03:46;91620.91;;;33.00;27.37
39455;BME280;25155;41.890;23.446;2022-08-19T12:06:17;91620.28;;;33.16;27.99
39455;BME280;25155;41.890;23.446;2022-08-19T12:08:46;91618.50;;;33.29;27.51
39455;BME280;25155;41.890;23.446;2022-08-19T12:11:15;91616.09;;;33.35;27.48
39455;BME280;25155;41.890;23.446;2022-08-19T12:13:43;91611.06;;;33.37;26.39
39455;BME280;25155;41.890;23.446;2022-08-19T12:16:13;91610.34;;;33.33;26.56
39455;BME280;25155;41.890;23.446;2022-08-19T12:18:42;91600.28;;;33.33;27.34
39455;BME280;25155;41.890;23.446;2022-08-19T12:21:12;91591.66;;;33.42;26.67
39455;BME280;25155;41.890;23.446;2022-08-19T12:23:40;91603.03;;;33.53;26.51
39455;BME280;25155;41.890;23.446;2022-08-19T12:26:09;91602.88;;;33.60;27.41
39455;BME280;25155;41.890;23.446;2022-08-19T12:28:39;91594.06;;;33.56;26.27
39455;BME280;25155;41.890;23.446;2022-08-19T12:31:07;91587.28;;;33.48;25.91
39455;BME280;25155;41.890;23.446;2022-08-19T12:33:37;91589.38;;;33.17;27.23
39455;BME280;25155;41.890;23.446;2022-08-19T12:36:06;91594.44;;;33.58;27.41
39455;BME280;25155;41.890;23.446;2022-08-19T12:38:35;91589.59;;;33.70;26.23
39455;BME280;25155;41.890;23.446;2022-08-19T12:41:03;91569.63;;;33.63;26.26
39455;BME280;25155;41.890;23.446;2022-08-19T12:43:33;91581.59;;;33.62;27.01
39455;BME280;25155;41.890;23.446;2022-08-19T12:46:02;91583.97;;;33.60;25.84
39455;BME280;25155;41.890;23.446;2022-08-19T12:48:30;91575.16;;;33.56;26.12
39455;BME280;25155;41.890;23.446;2022-08-19T12:50:58;91572.44;;;33.56;26.93
39455;BME280;25155;41.890;23.446;2022-08-19T12:53:25;91574.94;;;33.67;26.26
39455;BME280;25155;41.890;23.446;2022-08-19T12:55:55;91569.75;;;33.76;26.70
39455;BME280;25155;41.890;23.446;2022-08-19T12:58:23;91568.88;;;33.83;26.51
39455;BME280;25155;41.890;23.446;2022-08-19T13:00:51;91560.06;;;33.79;25.18
39455;BME280;25155;41.890;23.446;2022-08-19T13:03:20;91552.09;;;33.72;26.24